Terminal Aerodrome Forecast
Issued by NWS Jackson, MS

Home | Current Version | Previous Version | Text Only | Print | Product List | Glossary On
Versions: 1 2 3 4 5 6 7 8 9 10 11 12 13 14 15
000
FTUS44 KMEG 012336
TAFTUP
TAF
KTUP 012336Z 0200/0224 03005KT 2SM -RA BR OVC005
     FM020300 03004KT 2SM -RA BR OVC003
      TEMPO 0203/0205 1SM -RA BR
     FM021200 03010KT 3SM -RA BR OVC005
     FM021300 04012G20KT 5SM -RA BR OVC007=

USA.gov is the U.S. government's official web portal to all federal, state and local government web resources and services.